<?xml version="1.0" encoding="UTF-8" standalone="no" ?>
<gpx xmlns="http://www.topografix.com/GPX/1/1" xmlns:xsi="http://www.w3.org/2001/XMLSchema-instance" xsi:schemaLocation="http://www.topografix.com/GPX/1/1 http://www.topografix.com/GPX/1/1/gpx.xsd" version="1.1" creator="VisuGPX - https://www.visugpx.com">
  <metadata>
    <name>20 Juin - Descente du Toubkal</name>
    <desc><![CDATA[20 Juin - Descente du Toubkal 
]]></desc>
  </metadata>
  <trk>
    <name><![CDATA[2018-06-20 15:09:18]]></name>
    <trkseg>
      <trkpt lat="31.06046" lon="-7.91596">
        <ele>4165.64</ele>
        <time>2018-06-20T10:43:09Z</time>
      </trkpt>
      <trkpt lat="31.0604" lon="-7.91597">
        <ele>4166.21</ele>
        <time>2018-06-20T10:44:09Z</time>
      </trkpt>
      <trkpt lat="31.0604" lon="-7.91598">
        <ele>4165.67</ele>
        <time>2018-06-20T10:45:09Z</time>
      </trkpt>
      <trkpt lat="31.0604" lon="-7.91599">
        <ele>4165.42</ele>
        <time>2018-06-20T10:46:09Z</time>
      </trkpt>
      <trkpt lat="31.06038" lon="-7.91599">
        <ele>4165.17</ele>
        <time>2018-06-20T10:47:09Z</time>
      </trkpt>
      <trkpt lat="31.06025" lon="-7.91618">
        <ele>4159.7</ele>
        <time>2018-06-20T10:48:09Z</time>
      </trkpt>
      <trkpt lat="31.06008" lon="-7.91638">
        <ele>4150.91</ele>
        <time>2018-06-20T10:49:09Z</time>
      </trkpt>
      <trkpt lat="31.06009" lon="-7.91649">
        <ele>4144.73</ele>
        <time>2018-06-20T10:50:10Z</time>
      </trkpt>
      <trkpt lat="31.05999" lon="-7.91652">
        <ele>4141.16</ele>
        <time>2018-06-20T10:51:10Z</time>
      </trkpt>
      <trkpt lat="31.05988" lon="-7.91658">
        <ele>4134.99</ele>
        <time>2018-06-20T10:52:10Z</time>
      </trkpt>
      <trkpt lat="31.05952" lon="-7.91682">
        <ele>4124.6</ele>
        <time>2018-06-20T10:53:10Z</time>
      </trkpt>
      <trkpt lat="31.05921" lon="-7.91705">
        <ele>4117.54</ele>
        <time>2018-06-20T10:54:10Z</time>
      </trkpt>
      <trkpt lat="31.05887" lon="-7.91716">
        <ele>4116.74</ele>
        <time>2018-06-20T10:55:10Z</time>
      </trkpt>
      <trkpt lat="31.05853" lon="-7.91715">
        <ele>4111.71</ele>
        <time>2018-06-20T10:56:10Z</time>
      </trkpt>
      <trkpt lat="31.05852" lon="-7.91725">
        <ele>4106.84</ele>
        <time>2018-06-20T10:57:10Z</time>
      </trkpt>
      <trkpt lat="31.05837" lon="-7.91737">
        <ele>4098.85</ele>
        <time>2018-06-20T10:58:10Z</time>
      </trkpt>
      <trkpt lat="31.05817" lon="-7.91727">
        <ele>4096.81</ele>
        <time>2018-06-20T10:59:10Z</time>
      </trkpt>
      <trkpt lat="31.05786" lon="-7.91732">
        <ele>4090.01</ele>
        <time>2018-06-20T11:00:10Z</time>
      </trkpt>
      <trkpt lat="31.0576" lon="-7.91734">
        <ele>4080.29</ele>
        <time>2018-06-20T11:01:10Z</time>
      </trkpt>
      <trkpt lat="31.05743" lon="-7.91742">
        <ele>4072.07</ele>
        <time>2018-06-20T11:02:10Z</time>
      </trkpt>
      <trkpt lat="31.05723" lon="-7.91748">
        <ele>4064.76</ele>
        <time>2018-06-20T11:03:10Z</time>
      </trkpt>
      <trkpt lat="31.05702" lon="-7.91753">
        <ele>4058.8</ele>
        <time>2018-06-20T11:04:12Z</time>
      </trkpt>
      <trkpt lat="31.0569" lon="-7.91772">
        <ele>4051.04</ele>
        <time>2018-06-20T11:05:12Z</time>
      </trkpt>
      <trkpt lat="31.05659" lon="-7.9178">
        <ele>4043.1</ele>
        <time>2018-06-20T11:06:12Z</time>
      </trkpt>
      <trkpt lat="31.05642" lon="-7.91796">
        <ele>4035.6</ele>
        <time>2018-06-20T11:07:12Z</time>
      </trkpt>
      <trkpt lat="31.05642" lon="-7.91805">
        <ele>4030.4</ele>
        <time>2018-06-20T11:08:12Z</time>
      </trkpt>
      <trkpt lat="31.05639" lon="-7.91824">
        <ele>4024.02</ele>
        <time>2018-06-20T11:09:12Z</time>
      </trkpt>
      <trkpt lat="31.05627" lon="-7.91838">
        <ele>4015.06</ele>
        <time>2018-06-20T11:10:12Z</time>
      </trkpt>
      <trkpt lat="31.05604" lon="-7.91856">
        <ele>4006.37</ele>
        <time>2018-06-20T11:11:12Z</time>
      </trkpt>
      <trkpt lat="31.05602" lon="-7.91887">
        <ele>3997.76</ele>
        <time>2018-06-20T11:12:12Z</time>
      </trkpt>
      <trkpt lat="31.05618" lon="-7.91915">
        <ele>3987.78</ele>
        <time>2018-06-20T11:13:12Z</time>
      </trkpt>
      <trkpt lat="31.05617" lon="-7.9195">
        <ele>3977.65</ele>
        <time>2018-06-20T11:14:12Z</time>
      </trkpt>
      <trkpt lat="31.05637" lon="-7.91974">
        <ele>3967.76</ele>
        <time>2018-06-20T11:15:12Z</time>
      </trkpt>
      <trkpt lat="31.05651" lon="-7.92007">
        <ele>3956.42</ele>
        <time>2018-06-20T11:16:12Z</time>
      </trkpt>
      <trkpt lat="31.05674" lon="-7.92015">
        <ele>3947.85</ele>
        <time>2018-06-20T11:17:12Z</time>
      </trkpt>
      <trkpt lat="31.05688" lon="-7.92052">
        <ele>3937.35</ele>
        <time>2018-06-20T11:18:12Z</time>
      </trkpt>
      <trkpt lat="31.05716" lon="-7.92074">
        <ele>3926.25</ele>
        <time>2018-06-20T11:19:12Z</time>
      </trkpt>
      <trkpt lat="31.05734" lon="-7.92093">
        <ele>3916.4</ele>
        <time>2018-06-20T11:20:12Z</time>
      </trkpt>
      <trkpt lat="31.05746" lon="-7.92106">
        <ele>3911.33</ele>
        <time>2018-06-20T11:21:12Z</time>
      </trkpt>
      <trkpt lat="31.05753" lon="-7.9211">
        <ele>3907.26</ele>
        <time>2018-06-20T11:22:12Z</time>
      </trkpt>
      <trkpt lat="31.05753" lon="-7.9211">
        <ele>3906.17</ele>
        <time>2018-06-20T11:23:12Z</time>
      </trkpt>
      <trkpt lat="31.05753" lon="-7.92117">
        <ele>3904.7</ele>
        <time>2018-06-20T11:24:12Z</time>
      </trkpt>
      <trkpt lat="31.05755" lon="-7.92122">
        <ele>3901.39</ele>
        <time>2018-06-20T11:25:14Z</time>
      </trkpt>
      <trkpt lat="31.05758" lon="-7.92121">
        <ele>3900.62</ele>
        <time>2018-06-20T11:26:14Z</time>
      </trkpt>
      <trkpt lat="31.05761" lon="-7.92124">
        <ele>3898.33</ele>
        <time>2018-06-20T11:27:14Z</time>
      </trkpt>
      <trkpt lat="31.05762" lon="-7.92129">
        <ele>3896.83</ele>
        <time>2018-06-20T11:28:14Z</time>
      </trkpt>
      <trkpt lat="31.05765" lon="-7.92129">
        <ele>3895.92</ele>
        <time>2018-06-20T11:29:14Z</time>
      </trkpt>
      <trkpt lat="31.05769" lon="-7.92135">
        <ele>3893.2</ele>
        <time>2018-06-20T11:30:14Z</time>
      </trkpt>
      <trkpt lat="31.05769" lon="-7.92139">
        <ele>3890.39</ele>
        <time>2018-06-20T11:31:14Z</time>
      </trkpt>
      <trkpt lat="31.05773" lon="-7.92143">
        <ele>3887.56</ele>
        <time>2018-06-20T11:32:14Z</time>
      </trkpt>
      <trkpt lat="31.05779" lon="-7.9214">
        <ele>3883.47</ele>
        <time>2018-06-20T11:33:14Z</time>
      </trkpt>
      <trkpt lat="31.05778" lon="-7.92145">
        <ele>3879.67</ele>
        <time>2018-06-20T11:34:15Z</time>
      </trkpt>
      <trkpt lat="31.05787" lon="-7.92149">
        <ele>3873.47</ele>
        <time>2018-06-20T11:35:15Z</time>
      </trkpt>
      <trkpt lat="31.05793" lon="-7.92157">
        <ele>3868.08</ele>
        <time>2018-06-20T11:36:15Z</time>
      </trkpt>
      <trkpt lat="31.05797" lon="-7.92179">
        <ele>3861.48</ele>
        <time>2018-06-20T11:37:15Z</time>
      </trkpt>
      <trkpt lat="31.05795" lon="-7.92198">
        <ele>3854.38</ele>
        <time>2018-06-20T11:38:15Z</time>
      </trkpt>
      <trkpt lat="31.05788" lon="-7.92213">
        <ele>3849.49</ele>
        <time>2018-06-20T11:39:16Z</time>
      </trkpt>
      <trkpt lat="31.05798" lon="-7.92229">
        <ele>3845.31</ele>
        <time>2018-06-20T11:40:16Z</time>
      </trkpt>
      <trkpt lat="31.05822" lon="-7.92272">
        <ele>3833.61</ele>
        <time>2018-06-20T11:41:16Z</time>
      </trkpt>
      <trkpt lat="31.0584" lon="-7.92279">
        <ele>3828.21</ele>
        <time>2018-06-20T11:42:16Z</time>
      </trkpt>
      <trkpt lat="31.05843" lon="-7.9228">
        <ele>3825.35</ele>
        <time>2018-06-20T11:43:16Z</time>
      </trkpt>
      <trkpt lat="31.05838" lon="-7.92284">
        <ele>3823.93</ele>
        <time>2018-06-20T11:44:17Z</time>
      </trkpt>
      <trkpt lat="31.05842" lon="-7.92279">
        <ele>3823.67</ele>
        <time>2018-06-20T11:45:18Z</time>
      </trkpt>
      <trkpt lat="31.05842" lon="-7.92288">
        <ele>3821.4</ele>
        <time>2018-06-20T11:46:18Z</time>
      </trkpt>
      <trkpt lat="31.05847" lon="-7.92284">
        <ele>3821.75</ele>
        <time>2018-06-20T11:47:18Z</time>
      </trkpt>
      <trkpt lat="31.05844" lon="-7.92286">
        <ele>3821.58</ele>
        <time>2018-06-20T11:48:18Z</time>
      </trkpt>
      <trkpt lat="31.05844" lon="-7.92286">
        <ele>3822.07</ele>
        <time>2018-06-20T11:49:18Z</time>
      </trkpt>
      <trkpt lat="31.05841" lon="-7.92286">
        <ele>3822.39</ele>
        <time>2018-06-20T11:50:18Z</time>
      </trkpt>
      <trkpt lat="31.05849" lon="-7.92284">
        <ele>3822.64</ele>
        <time>2018-06-20T11:51:18Z</time>
      </trkpt>
      <trkpt lat="31.05846" lon="-7.92281">
        <ele>3823.12</ele>
        <time>2018-06-20T11:52:18Z</time>
      </trkpt>
      <trkpt lat="31.05848" lon="-7.92288">
        <ele>3821.8</ele>
        <time>2018-06-20T11:53:18Z</time>
      </trkpt>
      <trkpt lat="31.05868" lon="-7.92292">
        <ele>3814.29</ele>
        <time>2018-06-20T11:54:18Z</time>
      </trkpt>
      <trkpt lat="31.05878" lon="-7.92316">
        <ele>3806.74</ele>
        <time>2018-06-20T11:55:18Z</time>
      </trkpt>
      <trkpt lat="31.05879" lon="-7.92337">
        <ele>3800.6</ele>
        <time>2018-06-20T11:56:19Z</time>
      </trkpt>
      <trkpt lat="31.05884" lon="-7.92355">
        <ele>3795.65</ele>
        <time>2018-06-20T11:57:19Z</time>
      </trkpt>
      <trkpt lat="31.05886" lon="-7.92395">
        <ele>3787.27</ele>
        <time>2018-06-20T11:58:19Z</time>
      </trkpt>
      <trkpt lat="31.05894" lon="-7.92409">
        <ele>3782.05</ele>
        <time>2018-06-20T11:59:20Z</time>
      </trkpt>
      <trkpt lat="31.05904" lon="-7.92409">
        <ele>3775.22</ele>
        <time>2018-06-20T12:00:20Z</time>
      </trkpt>
      <trkpt lat="31.0591" lon="-7.92416">
        <ele>3774.02</ele>
        <time>2018-06-20T12:01:20Z</time>
      </trkpt>
      <trkpt lat="31.05911" lon="-7.92433">
        <ele>3769.24</ele>
        <time>2018-06-20T12:02:20Z</time>
      </trkpt>
      <trkpt lat="31.05945" lon="-7.92472">
        <ele>3755.02</ele>
        <time>2018-06-20T12:03:20Z</time>
      </trkpt>
      <trkpt lat="31.0595" lon="-7.92475">
        <ele>3748.05</ele>
        <time>2018-06-20T12:04:20Z</time>
      </trkpt>
      <trkpt lat="31.05951" lon="-7.9248">
        <ele>3748.29</ele>
        <time>2018-06-20T12:05:20Z</time>
      </trkpt>
      <trkpt lat="31.05944" lon="-7.92498">
        <ele>3747.19</ele>
        <time>2018-06-20T12:06:21Z</time>
      </trkpt>
      <trkpt lat="31.05947" lon="-7.92511">
        <ele>3744.25</ele>
        <time>2018-06-20T12:07:22Z</time>
      </trkpt>
      <trkpt lat="31.05946" lon="-7.92543">
        <ele>3734.07</ele>
        <time>2018-06-20T12:08:22Z</time>
      </trkpt>
      <trkpt lat="31.05967" lon="-7.92556">
        <ele>3724.83</ele>
        <time>2018-06-20T12:09:22Z</time>
      </trkpt>
      <trkpt lat="31.05967" lon="-7.92576">
        <ele>3718.36</ele>
        <time>2018-06-20T12:10:22Z</time>
      </trkpt>
      <trkpt lat="31.05969" lon="-7.92573">
        <ele>3717.88</ele>
        <time>2018-06-20T12:11:22Z</time>
      </trkpt>
      <trkpt lat="31.05968" lon="-7.92588">
        <ele>3716.55</ele>
        <time>2018-06-20T12:12:22Z</time>
      </trkpt>
      <trkpt lat="31.05984" lon="-7.92597">
        <ele>3707.9</ele>
        <time>2018-06-20T12:13:22Z</time>
      </trkpt>
      <trkpt lat="31.05993" lon="-7.92614">
        <ele>3699.78</ele>
        <time>2018-06-20T12:14:22Z</time>
      </trkpt>
      <trkpt lat="31.06003" lon="-7.92636">
        <ele>3691.93</ele>
        <time>2018-06-20T12:15:22Z</time>
      </trkpt>
      <trkpt lat="31.06003" lon="-7.92675">
        <ele>3682.77</ele>
        <time>2018-06-20T12:16:22Z</time>
      </trkpt>
      <trkpt lat="31.06016" lon="-7.92704">
        <ele>3673.29</ele>
        <time>2018-06-20T12:17:22Z</time>
      </trkpt>
      <trkpt lat="31.06043" lon="-7.92733">
        <ele>3665.08</ele>
        <time>2018-06-20T12:18:22Z</time>
      </trkpt>
      <trkpt lat="31.0605" lon="-7.92758">
        <ele>3656.94</ele>
        <time>2018-06-20T12:19:22Z</time>
      </trkpt>
      <trkpt lat="31.06053" lon="-7.9279">
        <ele>3649.01</ele>
        <time>2018-06-20T12:20:22Z</time>
      </trkpt>
      <trkpt lat="31.0605" lon="-7.92827">
        <ele>3640.3</ele>
        <time>2018-06-20T12:21:22Z</time>
      </trkpt>
      <trkpt lat="31.06048" lon="-7.92831">
        <ele>3639.73</ele>
        <time>2018-06-20T12:22:22Z</time>
      </trkpt>
      <trkpt lat="31.06052" lon="-7.9283">
        <ele>3639.21</ele>
        <time>2018-06-20T12:23:23Z</time>
      </trkpt>
      <trkpt lat="31.0605" lon="-7.92832">
        <ele>3640.09</ele>
        <time>2018-06-20T12:24:23Z</time>
      </trkpt>
      <trkpt lat="31.0605" lon="-7.92818">
        <ele>3639.28</ele>
        <time>2018-06-20T12:25:23Z</time>
      </trkpt>
      <trkpt lat="31.06052" lon="-7.92819">
        <ele>3639.51</ele>
        <time>2018-06-20T12:26:23Z</time>
      </trkpt>
      <trkpt lat="31.06051" lon="-7.92824">
        <ele>3639.29</ele>
        <time>2018-06-20T12:27:24Z</time>
      </trkpt>
      <trkpt lat="31.06047" lon="-7.92816">
        <ele>3639.89</ele>
        <time>2018-06-20T12:28:24Z</time>
      </trkpt>
      <trkpt lat="31.06047" lon="-7.92816">
        <ele>3639.73</ele>
        <time>2018-06-20T12:29:24Z</time>
      </trkpt>
      <trkpt lat="31.06061" lon="-7.92835">
        <ele>3639.73</ele>
        <time>2018-06-20T12:30:28Z</time>
      </trkpt>
      <trkpt lat="31.06048" lon="-7.92819">
        <ele>3639.62</ele>
        <time>2018-06-20T12:31:28Z</time>
      </trkpt>
      <trkpt lat="31.0605" lon="-7.92811">
        <ele>3640.23</ele>
        <time>2018-06-20T12:32:28Z</time>
      </trkpt>
      <trkpt lat="31.0605" lon="-7.92817">
        <ele>3639.37</ele>
        <time>2018-06-20T12:33:28Z</time>
      </trkpt>
      <trkpt lat="31.06055" lon="-7.92825">
        <ele>3639.97</ele>
        <time>2018-06-20T12:34:28Z</time>
      </trkpt>
      <trkpt lat="31.06047" lon="-7.92817">
        <ele>3639.71</ele>
        <time>2018-06-20T12:35:28Z</time>
      </trkpt>
      <trkpt lat="31.06047" lon="-7.92822">
        <ele>3639.02</ele>
        <time>2018-06-20T12:36:28Z</time>
      </trkpt>
      <trkpt lat="31.06057" lon="-7.92829">
        <ele>3635.95</ele>
        <time>2018-06-20T12:37:28Z</time>
      </trkpt>
      <trkpt lat="31.06057" lon="-7.92848">
        <ele>3631.58</ele>
        <time>2018-06-20T12:38:28Z</time>
      </trkpt>
      <trkpt lat="31.06064" lon="-7.92864">
        <ele>3626.07</ele>
        <time>2018-06-20T12:39:28Z</time>
      </trkpt>
      <trkpt lat="31.06062" lon="-7.92878">
        <ele>3621.33</ele>
        <time>2018-06-20T12:40:28Z</time>
      </trkpt>
      <trkpt lat="31.06069" lon="-7.92896">
        <ele>3614.65</ele>
        <time>2018-06-20T12:41:28Z</time>
      </trkpt>
      <trkpt lat="31.06082" lon="-7.92922">
        <ele>3606.33</ele>
        <time>2018-06-20T12:42:28Z</time>
      </trkpt>
      <trkpt lat="31.06085" lon="-7.92944">
        <ele>3600.46</ele>
        <time>2018-06-20T12:43:28Z</time>
      </trkpt>
      <trkpt lat="31.06088" lon="-7.92962">
        <ele>3594.61</ele>
        <time>2018-06-20T12:44:28Z</time>
      </trkpt>
      <trkpt lat="31.06099" lon="-7.92973">
        <ele>3589.27</ele>
        <time>2018-06-20T12:45:28Z</time>
      </trkpt>
      <trkpt lat="31.06093" lon="-7.92987">
        <ele>3584.31</ele>
        <time>2018-06-20T12:46:28Z</time>
      </trkpt>
      <trkpt lat="31.06095" lon="-7.92997">
        <ele>3579.85</ele>
        <time>2018-06-20T12:47:29Z</time>
      </trkpt>
      <trkpt lat="31.06105" lon="-7.93019">
        <ele>3569.84</ele>
        <time>2018-06-20T12:48:29Z</time>
      </trkpt>
      <trkpt lat="31.0611" lon="-7.93032">
        <ele>3563.28</ele>
        <time>2018-06-20T12:49:29Z</time>
      </trkpt>
      <trkpt lat="31.06121" lon="-7.93048">
        <ele>3555.51</ele>
        <time>2018-06-20T12:50:30Z</time>
      </trkpt>
      <trkpt lat="31.06128" lon="-7.93061">
        <ele>3548.43</ele>
        <time>2018-06-20T12:51:30Z</time>
      </trkpt>
      <trkpt lat="31.06137" lon="-7.93073">
        <ele>3542.12</ele>
        <time>2018-06-20T12:52:30Z</time>
      </trkpt>
      <trkpt lat="31.06147" lon="-7.9309">
        <ele>3533.51</ele>
        <time>2018-06-20T12:53:30Z</time>
      </trkpt>
      <trkpt lat="31.06154" lon="-7.93109">
        <ele>3526.54</ele>
        <time>2018-06-20T12:54:30Z</time>
      </trkpt>
      <trkpt lat="31.06162" lon="-7.93136">
        <ele>3518.33</ele>
        <time>2018-06-20T12:55:30Z</time>
      </trkpt>
      <trkpt lat="31.0616" lon="-7.93164">
        <ele>3510.43</ele>
        <time>2018-06-20T12:56:30Z</time>
      </trkpt>
      <trkpt lat="31.06156" lon="-7.93179">
        <ele>3505.15</ele>
        <time>2018-06-20T12:57:30Z</time>
      </trkpt>
      <trkpt lat="31.06164" lon="-7.93201">
        <ele>3497.54</ele>
        <time>2018-06-20T12:58:30Z</time>
      </trkpt>
      <trkpt lat="31.06159" lon="-7.93221">
        <ele>3490.32</ele>
        <time>2018-06-20T12:59:30Z</time>
      </trkpt>
      <trkpt lat="31.0615" lon="-7.93238">
        <ele>3482.56</ele>
        <time>2018-06-20T13:00:31Z</time>
      </trkpt>
      <trkpt lat="31.06148" lon="-7.93262">
        <ele>3475.13</ele>
        <time>2018-06-20T13:01:31Z</time>
      </trkpt>
      <trkpt lat="31.06162" lon="-7.93275">
        <ele>3466.43</ele>
        <time>2018-06-20T13:02:31Z</time>
      </trkpt>
      <trkpt lat="31.06192" lon="-7.93268">
        <ele>3460.55</ele>
        <time>2018-06-20T13:03:31Z</time>
      </trkpt>
      <trkpt lat="31.06224" lon="-7.93262">
        <ele>3451.25</ele>
        <time>2018-06-20T13:04:31Z</time>
      </trkpt>
      <trkpt lat="31.06237" lon="-7.93269">
        <ele>3445.75</ele>
        <time>2018-06-20T13:05:31Z</time>
      </trkpt>
      <trkpt lat="31.06249" lon="-7.9328">
        <ele>3439.66</ele>
        <time>2018-06-20T13:06:31Z</time>
      </trkpt>
      <trkpt lat="31.06265" lon="-7.93293">
        <ele>3432.79</ele>
        <time>2018-06-20T13:07:31Z</time>
      </trkpt>
      <trkpt lat="31.06257" lon="-7.93314">
        <ele>3423.77</ele>
        <time>2018-06-20T13:08:31Z</time>
      </trkpt>
      <trkpt lat="31.06251" lon="-7.93337">
        <ele>3417.25</ele>
        <time>2018-06-20T13:09:31Z</time>
      </trkpt>
      <trkpt lat="31.06235" lon="-7.93371">
        <ele>3410.9</ele>
        <time>2018-06-20T13:10:31Z</time>
      </trkpt>
      <trkpt lat="31.06221" lon="-7.93383">
        <ele>3403.64</ele>
        <time>2018-06-20T13:11:31Z</time>
      </trkpt>
      <trkpt lat="31.06223" lon="-7.93399">
        <ele>3400.03</ele>
        <time>2018-06-20T13:12:31Z</time>
      </trkpt>
      <trkpt lat="31.06224" lon="-7.93395">
        <ele>3399.9</ele>
        <time>2018-06-20T13:13:31Z</time>
      </trkpt>
      <trkpt lat="31.06225" lon="-7.93393">
        <ele>3400.47</ele>
        <time>2018-06-20T13:14:31Z</time>
      </trkpt>
      <trkpt lat="31.06226" lon="-7.93394">
        <ele>3400.24</ele>
        <time>2018-06-20T13:15:31Z</time>
      </trkpt>
      <trkpt lat="31.06228" lon="-7.93391">
        <ele>3399.63</ele>
        <time>2018-06-20T13:16:31Z</time>
      </trkpt>
      <trkpt lat="31.06229" lon="-7.93389">
        <ele>3399.81</ele>
        <time>2018-06-20T13:17:31Z</time>
      </trkpt>
      <trkpt lat="31.06227" lon="-7.93392">
        <ele>3397.23</ele>
        <time>2018-06-20T13:18:31Z</time>
      </trkpt>
      <trkpt lat="31.06226" lon="-7.93389">
        <ele>3399.19</ele>
        <time>2018-06-20T13:19:31Z</time>
      </trkpt>
      <trkpt lat="31.06227" lon="-7.93388">
        <ele>3398.65</ele>
        <time>2018-06-20T13:20:31Z</time>
      </trkpt>
      <trkpt lat="31.06226" lon="-7.9339">
        <ele>3398.8</ele>
        <time>2018-06-20T13:21:31Z</time>
      </trkpt>
      <trkpt lat="31.06227" lon="-7.93391">
        <ele>3398.84</ele>
        <time>2018-06-20T13:22:31Z</time>
      </trkpt>
      <trkpt lat="31.06227" lon="-7.9339">
        <ele>3399.08</ele>
        <time>2018-06-20T13:23:31Z</time>
      </trkpt>
      <trkpt lat="31.06227" lon="-7.93392">
        <ele>3399.15</ele>
        <time>2018-06-20T13:24:31Z</time>
      </trkpt>
      <trkpt lat="31.06229" lon="-7.93388">
        <ele>3400.08</ele>
        <time>2018-06-20T13:25:31Z</time>
      </trkpt>
      <trkpt lat="31.0623" lon="-7.93392">
        <ele>3399.79</ele>
        <time>2018-06-20T13:26:31Z</time>
      </trkpt>
      <trkpt lat="31.06232" lon="-7.9339">
        <ele>3400.21</ele>
        <time>2018-06-20T13:27:31Z</time>
      </trkpt>
      <trkpt lat="31.06229" lon="-7.93389">
        <ele>3399.1</ele>
        <time>2018-06-20T13:28:32Z</time>
      </trkpt>
      <trkpt lat="31.06227" lon="-7.9339">
        <ele>3398.69</ele>
        <time>2018-06-20T13:29:32Z</time>
      </trkpt>
      <trkpt lat="31.06228" lon="-7.9339">
        <ele>3399.42</ele>
        <time>2018-06-20T13:30:32Z</time>
      </trkpt>
      <trkpt lat="31.06223" lon="-7.93389">
        <ele>3396.24</ele>
        <time>2018-06-20T13:31:32Z</time>
      </trkpt>
      <trkpt lat="31.06216" lon="-7.93397">
        <ele>3390.21</ele>
        <time>2018-06-20T13:32:32Z</time>
      </trkpt>
      <trkpt lat="31.06205" lon="-7.93407">
        <ele>3384.35</ele>
        <time>2018-06-20T13:33:32Z</time>
      </trkpt>
      <trkpt lat="31.062" lon="-7.93416">
        <ele>3381.78</ele>
        <time>2018-06-20T13:34:32Z</time>
      </trkpt>
      <trkpt lat="31.06191" lon="-7.93437">
        <ele>3377.02</ele>
        <time>2018-06-20T13:35:32Z</time>
      </trkpt>
      <trkpt lat="31.06192" lon="-7.93452">
        <ele>3370.24</ele>
        <time>2018-06-20T13:36:32Z</time>
      </trkpt>
      <trkpt lat="31.06192" lon="-7.93469">
        <ele>3362.87</ele>
        <time>2018-06-20T13:37:32Z</time>
      </trkpt>
      <trkpt lat="31.06192" lon="-7.93471">
        <ele>3361.61</ele>
        <time>2018-06-20T13:38:32Z</time>
      </trkpt>
      <trkpt lat="31.06187" lon="-7.93486">
        <ele>3358.7</ele>
        <time>2018-06-20T13:39:32Z</time>
      </trkpt>
      <trkpt lat="31.06179" lon="-7.93491">
        <ele>3354.92</ele>
        <time>2018-06-20T13:40:32Z</time>
      </trkpt>
      <trkpt lat="31.06172" lon="-7.93503">
        <ele>3350.62</ele>
        <time>2018-06-20T13:41:32Z</time>
      </trkpt>
      <trkpt lat="31.0617" lon="-7.93515">
        <ele>3346.05</ele>
        <time>2018-06-20T13:42:32Z</time>
      </trkpt>
      <trkpt lat="31.0617" lon="-7.93525">
        <ele>3341.78</ele>
        <time>2018-06-20T13:43:32Z</time>
      </trkpt>
      <trkpt lat="31.06168" lon="-7.93536">
        <ele>3338.12</ele>
        <time>2018-06-20T13:44:32Z</time>
      </trkpt>
      <trkpt lat="31.06165" lon="-7.93546">
        <ele>3331.8</ele>
        <time>2018-06-20T13:45:32Z</time>
      </trkpt>
      <trkpt lat="31.06159" lon="-7.93558">
        <ele>3325.98</ele>
        <time>2018-06-20T13:46:32Z</time>
      </trkpt>
      <trkpt lat="31.06144" lon="-7.93588">
        <ele>3319.93</ele>
        <time>2018-06-20T13:47:32Z</time>
      </trkpt>
      <trkpt lat="31.06139" lon="-7.93609">
        <ele>3314.14</ele>
        <time>2018-06-20T13:48:32Z</time>
      </trkpt>
      <trkpt lat="31.06139" lon="-7.93638">
        <ele>3305.12</ele>
        <time>2018-06-20T13:49:32Z</time>
      </trkpt>
      <trkpt lat="31.06149" lon="-7.93673">
        <ele>3298.45</ele>
        <time>2018-06-20T13:50:32Z</time>
      </trkpt>
      <trkpt lat="31.06188" lon="-7.9368">
        <ele>3289.5</ele>
        <time>2018-06-20T13:51:32Z</time>
      </trkpt>
      <trkpt lat="31.06205" lon="-7.93688">
        <ele>3281.77</ele>
        <time>2018-06-20T13:52:32Z</time>
      </trkpt>
      <trkpt lat="31.06222" lon="-7.93705">
        <ele>3272.52</ele>
        <time>2018-06-20T13:53:32Z</time>
      </trkpt>
      <trkpt lat="31.06246" lon="-7.93726">
        <ele>3268.07</ele>
        <time>2018-06-20T13:54:32Z</time>
      </trkpt>
      <trkpt lat="31.06258" lon="-7.93746">
        <ele>3261</ele>
        <time>2018-06-20T13:55:32Z</time>
      </trkpt>
      <trkpt lat="31.06273" lon="-7.93757">
        <ele>3255.28</ele>
        <time>2018-06-20T13:56:32Z</time>
      </trkpt>
      <trkpt lat="31.06278" lon="-7.93763">
        <ele>3252.5</ele>
        <time>2018-06-20T13:57:32Z</time>
      </trkpt>
      <trkpt lat="31.0627" lon="-7.93772">
        <ele>3251.21</ele>
        <time>2018-06-20T13:58:32Z</time>
      </trkpt>
      <trkpt lat="31.06273" lon="-7.93773">
        <ele>3249.1</ele>
        <time>2018-06-20T13:59:32Z</time>
      </trkpt>
      <trkpt lat="31.06273" lon="-7.93772">
        <ele>3250.23</ele>
        <time>2018-06-20T14:00:33Z</time>
      </trkpt>
      <trkpt lat="31.06275" lon="-7.93778">
        <ele>3249.72</ele>
        <time>2018-06-20T14:01:33Z</time>
      </trkpt>
      <trkpt lat="31.06276" lon="-7.93778">
        <ele>3251.24</ele>
        <time>2018-06-20T14:02:33Z</time>
      </trkpt>
      <trkpt lat="31.06274" lon="-7.93772">
        <ele>3250.72</ele>
        <time>2018-06-20T14:03:33Z</time>
      </trkpt>
      <trkpt lat="31.06272" lon="-7.93774">
        <ele>3250.44</ele>
        <time>2018-06-20T14:04:33Z</time>
      </trkpt>
      <trkpt lat="31.06274" lon="-7.93772">
        <ele>3250.53</ele>
        <time>2018-06-20T14:05:33Z</time>
      </trkpt>
      <trkpt lat="31.06287" lon="-7.93777">
        <ele>3252.54</ele>
        <time>2018-06-20T14:06:33Z</time>
      </trkpt>
      <trkpt lat="31.06335" lon="-7.93779">
        <ele>3247.99</ele>
        <time>2018-06-20T14:07:33Z</time>
      </trkpt>
      <trkpt lat="31.0635" lon="-7.93759">
        <ele>3241</ele>
        <time>2018-06-20T14:08:33Z</time>
      </trkpt>
      <trkpt lat="31.06347" lon="-7.93752">
        <ele>3243.9</ele>
        <time>2018-06-20T14:09:18Z</time>
      </trkpt>
    </trkseg>
  </trk>
</gpx>